sensor_id;sensor_type;location;lat;lon;timestamp;temperature;humidity
6627;DHT22;3349;49.830;8.748;2024-03-06T00:02:05;4.50;99.90
6627;DHT22;3349;49.830;8.748;2024-03-06T00:04:31;4.40;99.90
6627;DHT22;3349;49.830;8.748;2024-03-06T00:06:58;4.40;99.90
6627;DHT22;3349;49.830;8.748;2024-03-06T00:09:25;4.40;99.90
6627;DHT22;3349;49.830;8.748;2024-03-06T00:11:54;4.40;99.90
6627;DHT22;3349;49.830;8.748;2024-03-06T00:14:21;4.30;99.90
6627;DHT22;3349;49.830;8.748;2024-03-06T00:16:48;4.20;99.90
6627;DHT22;3349;49.830;8.748;2024-03-06T00:19:15;4.20;99.90
6627;DHT22;3349;49.830;8.748;2024-03-06T00:21:42;4.20;99.90
6627;DHT22;3349;49.830;8.748;2024-03-06T00:24:10;4.10;99.90
6627;DHT22;3349;49.830;8.748;2024-03-06T00:26:39;4.00;99.90
6627;DHT22;3349;49.830;8.748;2024-03-06T00:29:08;3.90;99.90
6627;DHT22;3349;49.830;8.748;2024-03-06T00:31:35;3.80;99.90
6627;DHT22;3349;49.830;8.748;2024-03-06T00:34:01;3.80;99.90
6627;DHT22;3349;49.830;8.748;2024-03-06T00:36:28;3.70;99.90
6627;DHT22;3349;49.830;8.748;2024-03-06T00:38:55;3.80;99.90
6627;DHT22;3349;49.830;8.748;2024-03-06T00:41:22;3.70;99.90
6627;DHT22;3349;49.830;8.748;2024-03-06T00:43:48;3.70;99.90
6627;DHT22;3349;49.830;8.748;2024-03-06T00:46:17;3.70;99.90
6627;DHT22;3349;49.830;8.748;2024-03-06T00:48:43;3.70;99.90
6627;DHT22;3349;49.830;8.748;2024-03-06T00:51:10;3.60;99.90
6627;DHT22;3349;49.830;8.748;2024-03-06T00:53:37;3.50;99.90
6627;DHT22;3349;49.830;8.748;2024-03-06T00:56:04;3.50;99.90
6627;DHT22;3349;49.830;8.748;2024-03-06T00:58:31;3.40;99.90
6627;DHT22;3349;49.830;8.748;2024-03-06T01:00:58;3.50;99.90
6627;DHT22;3349;49.830;8.748;2024-03-06T01:03:26;3.50;99.90
6627;DHT22;3349;49.830;8.748;2024-03-06T01:05:53;3.40;99.90
6627;DHT22;3349;49.830;8.748;2024-03-06T01:08:21;3.40;99.90
6627;DHT22;3349;49.830;8.748;2024-03-06T01:10:50;3.40;99.90
6627;DHT22;3349;49.830;8.748;2024-03-06T01:13:17;3.40;99.90
6627;DHT22;3349;49.830;8.748;2024-03-06T01:15:44;3.60;99.90
6627;DHT22;3349;49.830;8.748;2024-03-06T01:18:11;3.60;99.90
6627;DHT22;3349;49.830;8.748;2024-03-06T01:20:39;3.50;99.90
6627;DHT22;3349;49.830;8.748;2024-03-06T01:23:05;3.50;99.90
6627;DHT22;3349;49.830;8.748;2024-03-06T01:25:32;3.60;99.90
6627;DHT22;3349;49.830;8.748;2024-03-06T01:27:59;3.60;99.90
6627;DHT22;3349;49.830;8.748;2024-03-06T01:30:25;3.60;99.90
6627;DHT22;3349;49.830;8.748;2024-03-06T01:32:52;3.50;99.90
6627;DHT22;3349;49.830;8.748;2024-03-06T01:35:19;3.60;99.90
6627;DHT22;3349;49.830;8.748;2024-03-06T01:37:47;3.50;99.90
6627;DHT22;3349;49.830;8.748;2024-03-06T01:40:13;3.40;99.90
6627;DHT22;3349;49.830;8.748;2024-03-06T01:42:40;3.30;99.90
6627;DHT22;3349;49.830;8.748;2024-03-06T01:45:08;3.20;99.90
6627;DHT22;3349;49.830;8.748;2024-03-06T01:47:35;3.20;99.90
6627;DHT22;3349;49.830;8.748;2024-03-06T01:50:02;3.10;99.90
6627;DHT22;3349;49.830;8.748;2024-03-06T01:52:31;3.10;99.90
6627;DHT22;3349;49.830;8.748;2024-03-06T01:54:59;3.00;99.90
6627;DHT22;3349;49.830;8.748;2024-03-06T01:57:26;2.90;99.90
6627;DHT22;3349;49.830;8.748;2024-03-06T01:59:53;2.90;99.90
6627;DHT22;3349;49.830;8.748;2024-03-06T02:02:20;2.90;99.90
6627;DHT22;3349;49.830;8.748;2024-03-06T02:04:47;2.90;99.90
6627;DHT22;3349;49.830;8.748;2024-03-06T02:07:14;2.90;99.90
6627;DHT22;3349;49.830;8.748;2024-03-06T02:09:43;2.90;99.90
6627;DHT22;3349;49.830;8.748;2024-03-06T02:12:11;2.80;99.90
6627;DHT22;3349;49.830;8.748;2024-03-06T02:14:39;2.70;99.90
6627;DHT22;3349;49.830;8.748;2024-03-06T02:17:05;2.70;99.90
6627;DHT22;3349;49.830;8.748;2024-03-06T02:19:38;2.60;99.90
6627;DHT22;3349;49.830;8.748;2024-03-06T02:22:07;2.60;99.90
6627;DHT22;3349;49.830;8.748;2024-03-06T02:24:34;2.50;99.90
6627;DHT22;3349;49.830;8.748;2024-03-06T02:27:02;2.50;99.90
6627;DHT22;3349;49.830;8.748;2024-03-06T02:29:31;2.50;99.90
6627;DHT22;3349;49.830;8.748;2024-03-06T02:31:57;2.50;99.90
6627;DHT22;3349;49.830;8.748;2024-03-06T02:34:24;2.50;99.90
6627;DHT22;3349;49.830;8.748;2024-03-06T02:36:51;2.40;99.90
6627;DHT22;3349;49.830;8.748;2024-03-06T02:39:19;2.40;99.90
6627;DHT22;3349;49.830;8.748;2024-03-06T02:41:46;2.40;99.90
6627;DHT22;3349;49.830;8.748;2024-03-06T02:44:14;2.40;99.90
6627;DHT22;3349;49.830;8.748;2024-03-06T02:46:41;2.30;99.90
6627;DHT22;3349;49.830;8.748;2024-03-06T02:49:08;2.40;99.90
6627;DHT22;3349;49.830;8.748;2024-03-06T02:51:34;2.40;99.90
6627;DHT22;3349;49.830;8.748;2024-03-06T02:54:02;2.40;99.90
6627;DHT22;3349;49.830;8.748;2024-03-06T02:56:31;2.30;99.90
6627;DHT22;3349;49.830;8.748;2024-03-06T02:58:57;2.30;99.90
6627;DHT22;3349;49.830;8.748;2024-03-06T03:01:24;2.40;99.90
6627;DHT22;3349;49.830;8.748;2024-03-06T03:03:50;2.50;99.90
6627;DHT22;3349;49.830;8.748;2024-03-06T03:06:17;2.40;99.90
6627;DHT22;3349;49.830;8.748;2024-03-06T03:08:44;2.50;99.90
6627;DHT22;3349;49.830;8.748;2024-03-06T03:11:11;2.50;99.90
6627;DHT22;3349;49.830;8.748;2024-03-06T03:13:39;2.50;99.90
6627;DHT22;3349;49.830;8.748;2024-03-06T03:16:06;2.40;99.90
6627;DHT22;3349;49.830;8.748;2024-03-06T03:18:32;2.30;99.90
6627;DHT22;3349;49.830;8.748;2024-03-06T03:20:59;2.30;99.90
6627;DHT22;3349;49.830;8.748;2024-03-06T03:23:27;2.30;99.90
6627;DHT22;3349;49.830;8.748;2024-03-06T03:25:54;2.30;99.90
6627;DHT22;3349;49.830;8.748;2024-03-06T03:28:20;2.30;99.90
6627;DHT22;3349;49.830;8.748;2024-03-06T03:30:48;2.20;99.90
6627;DHT22;3349;49.830;8.748;2024-03-06T03:33:15;2.30;99.90
6627;DHT22;3349;49.830;8.748;2024-03-06T03:35:42;2.30;99.90
6627;DHT22;3349;49.830;8.748;2024-03-06T03:38:08;2.20;99.90
6627;DHT22;3349;49.830;8.748;2024-03-06T03:40:35;2.20;99.90
6627;DHT22;3349;49.830;8.748;2024-03-06T03:43:02;2.20;99.90
6627;DHT22;3349;49.830;8.748;2024-03-06T03:45:32;2.10;99.90
6627;DHT22;3349;49.830;8.748;2024-03-06T03:48:01;2.10;99.90
6627;DHT22;3349;49.830;8.748;2024-03-06T03:50:29;2.00;99.90
6627;DHT22;3349;49.830;8.748;2024-03-06T03:52:55;2.00;99.90
6627;DHT22;3349;49.830;8.748;2024-03-06T03:55:23;2.00;99.90
6627;DHT22;3349;49.830;8.748;2024-03-06T03:57:51;2.10;99.90
6627;DHT22;3349;49.830;8.748;2024-03-06T04:00:18;2.10;99.90
6627;DHT22;3349;49.830;8.748;2024-03-06T04:02:45;2.00;99.90
6627;DHT22;3349;49.830;8.748;2024-03-06T04:05:13;1.90;99.90
6627;DHT22;3349;49.830;8.748;2024-03-06T04:07:40;1.90;99.90
6627;DHT22;3349;49.830;8.748;2024-03-06T04:10:08;1.90;99.90
6627;DHT22;3349;49.830;8.748;2024-03-06T04:12:36;1.80;99.90
6627;DHT22;3349;49.830;8.748;2024-03-06T04:15:04;1.80;99.90
6627;DHT22;3349;49.830;8.748;2024-03-06T04:17:31;1.80;99.90
6627;DHT22;3349;49.830;8.748;2024-03-06T04:19:58;1.80;99.90
6627;DHT22;3349;49.830;8.748;2024-03-06T04:22:26;1.80;99.90
6627;DHT22;3349;49.830;8.748;2024-03-06T04:24:54;1.80;99.90
6627;DHT22;3349;49.830;8.748;2024-03-06T04:27:23;1.80;99.90
6627;DHT22;3349;49.830;8.748;2024-03-06T04:29:50;1.80;99.90
6627;DHT22;3349;49.830;8.748;2024-03-06T04:32:17;1.70;99.90
6627;DHT22;3349;49.830;8.748;2024-03-06T04:34:44;1.70;99.90
6627;DHT22;3349;49.830;8.748;2024-03-06T04:37:11;1.80;99.90
6627;DHT22;3349;49.830;8.748;2024-03-06T04:39:39;1.80;99.90
6627;DHT22;3349;49.830;8.748;2024-03-06T04:42:06;1.70;99.90
6627;DHT22;3349;49.830;8.748;2024-03-06T04:44:33;1.70;99.90
6627;DHT22;3349;49.830;8.748;2024-03-06T04:47:00;1.60;99.90
6627;DHT22;3349;49.830;8.748;2024-03-06T04:49:26;1.60;99.90
6627;DHT22;3349;49.830;8.748;2024-03-06T04:51:53;1.60;99.90
6627;DHT22;3349;49.830;8.748;2024-03-06T04:54:20;1.50;99.90
6627;DHT22;3349;49.830;8.748;2024-03-06T04:56:48;1.50;99.90
6627;DHT22;3349;49.830;8.748;2024-03-06T04:59:14;1.50;99.90
6627;DHT22;3349;49.830;8.748;2024-03-06T05:01:41;1.50;99.90
6627;DHT22;3349;49.830;8.748;2024-03-06T05:04:09;1.60;99.90
6627;DHT22;3349;49.830;8.748;2024-03-06T05:06:36;1.50;99.90
6627;DHT22;3349;49.830;8.748;2024-03-06T05:09:03;1.60;99.90
6627;DHT22;3349;49.830;8.748;2024-03-06T05:11:31;1.60;99.90
6627;DHT22;3349;49.830;8.748;2024-03-06T05:13:59;1.50;99.90
6627;DHT22;3349;49.830;8.748;2024-03-06T05:16:26;1.50;99.90
6627;DHT22;3349;49.830;8.748;2024-03-06T05:18:53;1.40;99.90
6627;DHT22;3349;49.830;8.748;2024-03-06T05:21:20;1.40;99.90
6627;DHT22;3349;49.830;8.748;2024-03-06T05:23:47;1.40;99.90
6627;DHT22;3349;49.830;8.748;2024-03-06T05:26:14;1.40;99.90
6627;DHT22;3349;49.830;8.748;2024-03-06T05:28:41;1.30;99.90
6627;DHT22;3349;49.830;8.748;2024-03-06T05:31:17;1.30;99.90
6627;DHT22;3349;49.830;8.748;2024-03-06T05:33:45;1.40;99.90
6627;DHT22;3349;49.830;8.748;2024-03-06T05:36:12;1.40;99.90
6627;DHT22;3349;49.830;8.748;2024-03-06T05:38:40;1.50;99.90
6627;DHT22;3349;49.830;8.748;2024-03-06T05:41:07;1.50;99.90
6627;DHT22;3349;49.830;8.748;2024-03-06T05:43:34;1.70;99.90
6627;DHT22;3349;49.830;8.748;2024-03-06T05:46:00;1.80;99.90
6627;DHT22;3349;49.830;8.748;2024-03-06T05:48:27;1.90;99.90
6627;DHT22;3349;49.830;8.748;2024-03-06T05:50:54;1.90;99.90
6627;DHT22;3349;49.830;8.748;2024-03-06T05:53:21;1.90;99.90
6627;DHT22;3349;49.830;8.748;2024-03-06T05:55:48;1.90;99.90
6627;DHT22;3349;49.830;8.748;2024-03-06T05:58:15;2.00;99.90
6627;DHT22;3349;49.830;8.748;2024-03-06T06:00:42;2.00;99.90
6627;DHT22;3349;49.830;8.748;2024-03-06T06:03:09;2.10;99.90
6627;DHT22;3349;49.830;8.748;2024-03-06T06:05:38;2.10;99.90
6627;DHT22;3349;49.830;8.748;2024-03-06T06:08:06;2.20;99.90
6627;DHT22;3349;49.830;8.748;2024-03-06T06:10:32;2.20;99.90
6627;DHT22;3349;49.830;8.748;2024-03-06T06:13:00;2.30;99.90
6627;DHT22;3349;49.830;8.748;2024-03-06T06:15:28;2.30;99.90
6627;DHT22;3349;49.830;8.748;2024-03-06T06:17:55;2.40;99.90
6627;DHT22;3349;49.830;8.748;2024-03-06T06:20:22;2.40;99.90
6627;DHT22;3349;49.830;8.748;2024-03-06T06:22:51;2.50;99.90
6627;DHT22;3349;49.830;8.748;2024-03-06T06:25:18;2.50;99.90
6627;DHT22;3349;49.830;8.748;2024-03-06T06:27:44;2.60;99.90
6627;DHT22;3349;49.830;8.748;2024-03-06T06:30:12;2.60;99.90
6627;DHT22;3349;49.830;8.748;2024-03-06T06:32:38;2.70;99.90
6627;DHT22;3349;49.830;8.748;2024-03-06T06:35:06;2.80;99.90
6627;DHT22;3349;49.830;8.748;2024-03-06T06:37:33;2.90;99.90
6627;DHT22;3349;49.830;8.748;2024-03-06T06:40:02;2.90;99.90
6627;DHT22;3349;49.830;8.748;2024-03-06T06:42:31;3.00;99.90
6627;DHT22;3349;49.830;8.748;2024-03-06T06:44:58;3.00;99.90
6627;DHT22;3349;49.830;8.748;2024-03-06T06:47:25;3.10;99.90
6627;DHT22;3349;49.830;8.748;2024-03-06T06:49:52;3.20;99.90
6627;DHT22;3349;49.830;8.748;2024-03-06T06:52:19;3.30;99.90
6627;DHT22;3349;49.830;8.748;2024-03-06T06:54:46;3.40;99.90
6627;DHT22;3349;49.830;8.748;2024-03-06T06:57:15;3.40;99.90
6627;DHT22;3349;49.830;8.748;2024-03-06T06:59:42;3.50;99.90
6627;DHT22;3349;49.830;8.748;2024-03-06T07:02:08;3.50;99.90
6627;DHT22;3349;49.830;8.748;2024-03-06T07:04:35;3.70;99.90
6627;DHT22;3349;49.830;8.748;2024-03-06T07:07:02;3.90;99.90
6627;DHT22;3349;49.830;8.748;2024-03-06T07:09:29;4.10;99.90
6627;DHT22;3349;49.830;8.748;2024-03-06T07:11:56;4.30;99.90
6627;DHT22;3349;49.830;8.748;2024-03-06T07:14:24;4.50;99.90
6627;DHT22;3349;49.830;8.748;2024-03-06T07:16:50;4.60;99.90
6627;DHT22;3349;49.830;8.748;2024-03-06T07:19:17;4.70;99.90
6627;DHT22;3349;49.830;8.748;2024-03-06T07:21:44;4.80;99.90
6627;DHT22;3349;49.830;8.748;2024-03-06T07:24:11;5.00;99.90
6627;DHT22;3349;49.830;8.748;2024-03-06T07:26:37;5.10;99.90
6627;DHT22;3349;49.830;8.748;2024-03-06T07:29:04;5.20;99.90
6627;DHT22;3349;49.830;8.748;2024-03-06T07:31:39;5.30;99.90
6627;DHT22;3349;49.830;8.748;2024-03-06T07:34:07;5.40;99.90
6627;DHT22;3349;49.830;8.748;2024-03-06T07:36:33;5.50;99.90
6627;DHT22;3349;49.830;8.748;2024-03-06T07:39:00;5.50;99.90
6627;DHT22;3349;49.830;8.748;2024-03-06T07:41:28;5.60;99.60
6627;DHT22;3349;49.830;8.748;2024-03-06T07:43:54;5.60;99.10
6627;DHT22;3349;49.830;8.748;2024-03-06T07:46:21;5.60;99.30
6627;DHT22;3349;49.830;8.748;2024-03-06T07:48:49;5.60;99.20
6627;DHT22;3349;49.830;8.748;2024-03-06T07:51:16;5.70;99.50
6627;DHT22;3349;49.830;8.748;2024-03-06T07:53:43;5.70;99.50
6627;DHT22;3349;49.830;8.748;2024-03-06T07:56:10;5.80;99.80
6627;DHT22;3349;49.830;8.748;2024-03-06T07:58:38;5.90;99.90
6627;DHT22;3349;49.830;8.748;2024-03-06T08:01:05;6.00;99.90
6627;DHT22;3349;49.830;8.748;2024-03-06T08:03:32;6.10;99.90
6627;DHT22;3349;49.830;8.748;2024-03-06T08:06:00;6.30;99.90
6627;DHT22;3349;49.830;8.748;2024-03-06T08:08:27;6.50;99.90
6627;DHT22;3349;49.830;8.748;2024-03-06T08:10:54;6.70;99.90
6627;DHT22;3349;49.830;8.748;2024-03-06T08:13:20;6.90;99.90
6627;DHT22;3349;49.830;8.748;2024-03-06T08:15:47;7.00;99.90
6627;DHT22;3349;49.830;8.748;2024-03-06T08:18:14;7.20;99.50
6627;DHT22;3349;49.830;8.748;2024-03-06T08:20:41;7.40;99.00
6627;DHT22;3349;49.830;8.748;2024-03-06T08:23:09;7.60;98.00
6627;DHT22;3349;49.830;8.748;2024-03-06T08:25:36;8.00;98.80
6627;DHT22;3349;49.830;8.748;2024-03-06T08:28:03;8.20;96.80
6627;DHT22;3349;49.830;8.748;2024-03-06T08:30:31;8.50;96.10
6627;DHT22;3349;49.830;8.748;2024-03-06T08:32:58;8.50;94.30
6627;DHT22;3349;49.830;8.748;2024-03-06T08:35:25;8.70;94.20
6627;DHT22;3349;49.830;8.748;2024-03-06T08:37:51;8.70;92.80
6627;DHT22;3349;49.830;8.748;2024-03-06T08:40:20;8.70;91.90
6627;DHT22;3349;49.830;8.748;2024-03-06T08:42:48;8.60;91.60
6627;DHT22;3349;49.830;8.748;2024-03-06T08:45:16;8.60;91.70
6627;DHT22;3349;49.830;8.748;2024-03-06T08:47:44;8.50;91.60
6627;DHT22;3349;49.830;8.748;2024-03-06T08:50:11;8.50;92.20
6627;DHT22;3349;49.830;8.748;2024-03-06T08:52:39;8.60;92.40
6627;DHT22;3349;49.830;8.748;2024-03-06T08:55:07;8.60;92.50
6627;DHT22;3349;49.830;8.748;2024-03-06T08:57:36;8.80;92.60
6627;DHT22;3349;49.830;8.748;2024-03-06T09:00:04;8.90;91.80
6627;DHT22;3349;49.830;8.748;2024-03-06T09:02:34;9.10;91.60
6627;DHT22;3349;49.830;8.748;2024-03-06T09:05:00;9.20;90.40
6627;DHT22;3349;49.830;8.748;2024-03-06T09:07:30;9.40;88.70
6627;DHT22;3349;49.830;8.748;2024-03-06T09:09:56;9.40;87.20
6627;DHT22;3349;49.830;8.748;2024-03-06T09:12:23;9.50;83.70
6627;DHT22;3349;49.830;8.748;2024-03-06T09:14:51;9.70;83.60
6627;DHT22;3349;49.830;8.748;2024-03-06T09:17:18;10.00;80.80
6627;DHT22;3349;49.830;8.748;2024-03-06T09:19:44;10.00;76.60
6627;DHT22;3349;49.830;8.748;2024-03-06T09:22:11;10.10;77.00
6627;DHT22;3349;49.830;8.748;2024-03-06T09:24:37;10.30;76.50
6627;DHT22;3349;49.830;8.748;2024-03-06T09:27:04;10.50;76.20
6627;DHT22;3349;49.830;8.748;2024-03-06T09:29:31;10.50;74.80
6627;DHT22;3349;49.830;8.748;2024-03-06T09:31:59;10.60;74.20
6627;DHT22;3349;49.830;8.748;2024-03-06T09:34:26;10.50;72.90
6627;DHT22;3349;49.830;8.748;2024-03-06T09:36:52;10.50;74.50
6627;DHT22;3349;49.830;8.748;2024-03-06T09:39:20;10.60;73.50
6627;DHT22;3349;49.830;8.748;2024-03-06T09:41:48;10.70;75.20
6627;DHT22;3349;49.830;8.748;2024-03-06T09:44:15;10.90;73.60
6627;DHT22;3349;49.830;8.748;2024-03-06T09:46:43;11.20;72.20
6627;DHT22;3349;49.830;8.748;2024-03-06T09:49:13;11.30;72.00
6627;DHT22;3349;49.830;8.748;2024-03-06T09:51:43;11.70;71.70
6627;DHT22;3349;49.830;8.748;2024-03-06T09:54:12;12.30;67.90
6627;DHT22;3349;49.830;8.748;2024-03-06T09:56:41;12.60;66.30
6627;DHT22;3349;49.830;8.748;2024-03-06T09:59:08;13.10;63.80
6627;DHT22;3349;49.830;8.748;2024-03-06T10:01:39;13.20;61.20
6627;DHT22;3349;49.830;8.748;2024-03-06T10:04:21;13.00;60.90
6627;DHT22;3349;49.830;8.748;2024-03-06T10:06:48;13.00;61.10
6627;DHT22;3349;49.830;8.748;2024-03-06T10:09:17;12.90;60.30
6627;DHT22;3349;49.830;8.748;2024-03-06T10:11:44;13.00;61.00
6627;DHT22;3349;49.830;8.748;2024-03-06T10:14:11;13.10;60.70
6627;DHT22;3349;49.830;8.748;2024-03-06T10:16:37;13.30;60.20
6627;DHT22;3349;49.830;8.748;2024-03-06T10:19:17;13.30;59.20
6627;DHT22;3349;49.830;8.748;2024-03-06T10:21:46;13.30;59.20
6627;DHT22;3349;49.830;8.748;2024-03-06T10:24:18;13.50;58.90
6627;DHT22;3349;49.830;8.748;2024-03-06T10:26:45;13.20;58.40
6627;DHT22;3349;49.830;8.748;2024-03-06T10:29:15;13.20;59.10
6627;DHT22;3349;49.830;8.748;2024-03-06T10:31:47;13.10;59.80
6627;DHT22;3349;49.830;8.748;2024-03-06T10:34:14;13.30;60.00
6627;DHT22;3349;49.830;8.748;2024-03-06T10:36:42;13.30;59.70
6627;DHT22;3349;49.830;8.748;2024-03-06T10:39:11;13.40;59.30
6627;DHT22;3349;49.830;8.748;2024-03-06T10:41:40;13.30;59.20
6627;DHT22;3349;49.830;8.748;2024-03-06T10:44:11;13.20;59.40
6627;DHT22;3349;49.830;8.748;2024-03-06T10:46:40;13.30;60.50
6627;DHT22;3349;49.830;8.748;2024-03-06T10:49:09;13.60;59.50
6627;DHT22;3349;49.830;8.748;2024-03-06T10:51:38;13.90;57.90
6627;DHT22;3349;49.830;8.748;2024-03-06T10:54:09;14.00;57.30
6627;DHT22;3349;49.830;8.748;2024-03-06T10:56:39;13.80;56.40
6627;DHT22;3349;49.830;8.748;2024-03-06T10:59:07;13.70;56.30
6627;DHT22;3349;49.830;8.748;2024-03-06T11:01:34;14.10;55.70
6627;DHT22;3349;49.830;8.748;2024-03-06T11:04:01;14.00;55.80
6627;DHT22;3349;49.830;8.748;2024-03-06T11:06:29;14.00;56.20
6627;DHT22;3349;49.830;8.748;2024-03-06T11:08:55;14.10;54.40
6627;DHT22;3349;49.830;8.748;2024-03-06T11:11:24;14.30;54.20
6627;DHT22;3349;49.830;8.748;2024-03-06T11:13:54;14.50;53.30
6627;DHT22;3349;49.830;8.748;2024-03-06T11:16:27;14.40;53.80
6627;DHT22;3349;49.830;8.748;2024-03-06T11:19:04;14.50;54.00
6627;DHT22;3349;49.830;8.748;2024-03-06T11:21:32;14.50;53.20
6627;DHT22;3349;49.830;8.748;2024-03-06T11:24:16;14.40;52.90
6627;DHT22;3349;49.830;8.748;2024-03-06T11:26:46;14.80;53.50
6627;DHT22;3349;49.830;8.748;2024-03-06T11:29:15;15.30;51.00
6627;DHT22;3349;49.830;8.748;2024-03-06T11:31:58;15.10;50.80
6627;DHT22;3349;49.830;8.748;2024-03-06T11:34:26;15.10;51.20
6627;DHT22;3349;49.830;8.748;2024-03-06T11:36:55;15.20;51.00
6627;DHT22;3349;49.830;8.748;2024-03-06T11:39:22;14.80;51.00
6627;DHT22;3349;49.830;8.748;2024-03-06T11:41:51;14.80;50.90
6627;DHT22;3349;49.830;8.748;2024-03-06T11:44:18;14.70;50.80
6627;DHT22;3349;49.830;8.748;2024-03-06T11:46:47;14.50;52.00
6627;DHT22;3349;49.830;8.748;2024-03-06T11:49:15;14.40;51.60
6627;DHT22;3349;49.830;8.748;2024-03-06T11:51:44;14.10;51.80
6627;DHT22;3349;49.830;8.748;2024-03-06T11:54:11;13.80;52.10
6627;DHT22;3349;49.830;8.748;2024-03-06T11:56:39;13.40;53.10
6627;DHT22;3349;49.830;8.748;2024-03-06T11:59:07;13.20;53.90
6627;DHT22;3349;49.830;8.748;2024-03-06T12:01:35;13.20;54.40
6627;DHT22;3349;49.830;8.748;2024-03-06T12:04:02;13.40;55.20
6627;DHT22;3349;49.830;8.748;2024-03-06T12:06:29;14.10;54.20
6627;DHT22;3349;49.830;8.748;2024-03-06T12:08:56;14.60;52.20
6627;DHT22;3349;49.830;8.748;2024-03-06T12:11:23;14.60;51.40
6627;DHT22;3349;49.830;8.748;2024-03-06T12:13:51;14.60;51.00
6627;DHT22;3349;49.830;8.748;2024-03-06T12:16:19;14.20;51.90
6627;DHT22;3349;49.830;8.748;2024-03-06T12:18:46;13.90;51.70
6627;DHT22;3349;49.830;8.748;2024-03-06T12:21:13;13.40;53.60
6627;DHT22;3349;49.830;8.748;2024-03-06T12:23:39;13.00;54.90
6627;DHT22;3349;49.830;8.748;2024-03-06T12:26:08;12.70;55.90
6627;DHT22;3349;49.830;8.748;2024-03-06T12:28:35;12.60;56.60
6627;DHT22;3349;49.830;8.748;2024-03-06T12:31:03;12.40;57.50
6627;DHT22;3349;49.830;8.748;2024-03-06T12:33:32;12.40;58.40
6627;DHT22;3349;49.830;8.748;2024-03-06T12:36:01;12.50;58.50
6627;DHT22;3349;49.830;8.748;2024-03-06T12:38:29;12.70;57.30
6627;DHT22;3349;49.830;8.748;2024-03-06T12:40:55;13.40;56.10
6627;DHT22;3349;49.830;8.748;2024-03-06T12:43:22;13.50;54.70
6627;DHT22;3349;49.830;8.748;2024-03-06T12:45:49;13.40;55.00
6627;DHT22;3349;49.830;8.748;2024-03-06T12:48:16;13.20;54.50
6627;DHT22;3349;49.830;8.748;2024-03-06T12:50:44;13.20;54.60
6627;DHT22;3349;49.830;8.748;2024-03-06T12:53:16;13.20;54.60
6627;DHT22;3349;49.830;8.748;2024-03-06T12:55:42;13.50;54.40
6627;DHT22;3349;49.830;8.748;2024-03-06T12:58:11;14.10;53.70
6627;DHT22;3349;49.830;8.748;2024-03-06T13:00:37;14.60;52.20
6627;DHT22;3349;49.830;8.748;2024-03-06T13:03:05;14.40;50.60
6627;DHT22;3349;49.830;8.748;2024-03-06T13:05:32;14.00;51.80
6627;DHT22;3349;49.830;8.748;2024-03-06T13:08:00;13.60;52.10
6627;DHT22;3349;49.830;8.748;2024-03-06T13:10:27;13.10;53.60
6627;DHT22;3349;49.830;8.748;2024-03-06T13:12:54;12.60;55.20
6627;DHT22;3349;49.830;8.748;2024-03-06T13:15:21;12.40;56.30
6627;DHT22;3349;49.830;8.748;2024-03-06T13:17:47;12.00;58.00
6627;DHT22;3349;49.830;8.748;2024-03-06T13:20:14;11.80;58.40
6627;DHT22;3349;49.830;8.748;2024-03-06T13:22:41;11.70;59.80
6627;DHT22;3349;49.830;8.748;2024-03-06T13:25:10;11.60;60.50
6627;DHT22;3349;49.830;8.748;2024-03-06T13:27:37;11.80;61.70
6627;DHT22;3349;49.830;8.748;2024-03-06T13:30:05;11.90;61.10
6627;DHT22;3349;49.830;8.748;2024-03-06T13:32:33;12.10;61.20
6627;DHT22;3349;49.830;8.748;2024-03-06T13:35:00;12.50;60.50
6627;DHT22;3349;49.830;8.748;2024-03-06T13:37:27;12.50;58.70
6627;DHT22;3349;49.830;8.748;2024-03-06T13:39:54;12.90;59.50
6627;DHT22;3349;49.830;8.748;2024-03-06T13:42:27;13.10;57.60
6627;DHT22;3349;49.830;8.748;2024-03-06T13:44:53;12.90;56.70
6627;DHT22;3349;49.830;8.748;2024-03-06T13:47:21;12.80;56.50
6627;DHT22;3349;49.830;8.748;2024-03-06T13:49:47;12.50;56.00
6627;DHT22;3349;49.830;8.748;2024-03-06T13:52:14;12.50;56.60
6627;DHT22;3349;49.830;8.748;2024-03-06T13:54:46;12.50;56.50
6627;DHT22;3349;49.830;8.748;2024-03-06T13:57:13;12.60;55.70
6627;DHT22;3349;49.830;8.748;2024-03-06T13:59:41;12.40;55.60
6627;DHT22;3349;49.830;8.748;2024-03-06T14:02:08;12.50;56.20
6627;DHT22;3349;49.830;8.748;2024-03-06T14:04:35;12.40;56.10
6627;DHT22;3349;49.830;8.748;2024-03-06T14:07:02;12.50;56.20
6627;DHT22;3349;49.830;8.748;2024-03-06T14:09:28;12.70;55.90
6627;DHT22;3349;49.830;8.748;2024-03-06T14:11:55;12.90;55.20
6627;DHT22;3349;49.830;8.748;2024-03-06T14:14:22;13.10;54.80
6627;DHT22;3349;49.830;8.748;2024-03-06T14:16:50;13.30;54.20
6627;DHT22;3349;49.830;8.748;2024-03-06T14:19:17;13.40;53.50
6627;DHT22;3349;49.830;8.748;2024-03-06T14:21:44;13.40;53.00
6627;DHT22;3349;49.830;8.748;2024-03-06T14:24:12;13.70;52.10
6627;DHT22;3349;49.830;8.748;2024-03-06T14:26:39;14.30;52.00
6627;DHT22;3349;49.830;8.748;2024-03-06T14:29:06;15.10;50.60
6627;DHT22;3349;49.830;8.748;2024-03-06T14:31:35;15.20;49.30
6627;DHT22;3349;49.830;8.748;2024-03-06T14:34:03;15.20;48.50
6627;DHT22;3349;49.830;8.748;2024-03-06T14:36:29;15.00;49.10
6627;DHT22;3349;49.830;8.748;2024-03-06T14:38:56;14.90;49.70
6627;DHT22;3349;49.830;8.748;2024-03-06T14:41:23;14.80;50.20
6627;DHT22;3349;49.830;8.748;2024-03-06T14:43:49;14.60;50.40
6627;DHT22;3349;49.830;8.748;2024-03-06T14:46:16;14.30;51.00
6627;DHT22;3349;49.830;8.748;2024-03-06T14:48:43;14.00;51.30
6627;DHT22;3349;49.830;8.748;2024-03-06T14:51:12;13.60;51.40
6627;DHT22;3349;49.830;8.748;2024-03-06T14:53:39;13.10;53.10
6627;DHT22;3349;49.830;8.748;2024-03-06T14:56:06;13.00;53.40
6627;DHT22;3349;49.830;8.748;2024-03-06T14:58:33;12.70;54.30
6627;DHT22;3349;49.830;8.748;2024-03-06T15:00:59;12.50;55.30
6627;DHT22;3349;49.830;8.748;2024-03-06T15:03:26;12.30;55.90
6627;DHT22;3349;49.830;8.748;2024-03-06T15:05:54;12.20;56.40
6627;DHT22;3349;49.830;8.748;2024-03-06T15:08:22;12.10;57.10
6627;DHT22;3349;49.830;8.748;2024-03-06T15:10:49;11.90;58.00
6627;DHT22;3349;49.830;8.748;2024-03-06T15:13:17;11.60;57.80
6627;DHT22;3349;49.830;8.748;2024-03-06T15:15:44;11.50;58.60
6627;DHT22;3349;49.830;8.748;2024-03-06T15:18:11;11.30;59.20
6627;DHT22;3349;49.830;8.748;2024-03-06T15:20:38;11.30;59.70
6627;DHT22;3349;49.830;8.748;2024-03-06T15:23:04;11.20;59.80
6627;DHT22;3349;49.830;8.748;2024-03-06T15:25:32;11.10;59.80
6627;DHT22;3349;49.830;8.748;2024-03-06T15:27:59;11.00;60.20
6627;DHT22;3349;49.830;8.748;2024-03-06T15:30:26;11.00;60.70
6627;DHT22;3349;49.830;8.748;2024-03-06T15:32:54;10.90;60.90
6627;DHT22;3349;49.830;8.748;2024-03-06T15:35:21;10.90;61.70
6627;DHT22;3349;49.830;8.748;2024-03-06T15:37:48;10.90;61.80
6627;DHT22;3349;49.830;8.748;2024-03-06T15:40:15;10.80;62.10
6627;DHT22;3349;49.830;8.748;2024-03-06T15:42:43;10.80;62.40
6627;DHT22;3349;49.830;8.748;2024-03-06T15:45:12;10.80;62.50
6627;DHT22;3349;49.830;8.748;2024-03-06T15:47:39;10.70;62.40
6627;DHT22;3349;49.830;8.748;2024-03-06T15:50:08;10.70;62.90
6627;DHT22;3349;49.830;8.748;2024-03-06T15:52:36;10.70;63.00
6627;DHT22;3349;49.830;8.748;2024-03-06T15:55:03;10.70;63.70
6627;DHT22;3349;49.830;8.748;2024-03-06T15:57:31;10.60;63.80
6627;DHT22;3349;49.830;8.748;2024-03-06T15:59:59;10.50;64.00
6627;DHT22;3349;49.830;8.748;2024-03-06T16:02:25;10.50;65.10
6627;DHT22;3349;49.830;8.748;2024-03-06T16:04:52;10.50;64.90
6627;DHT22;3349;49.830;8.748;2024-03-06T16:07:18;10.40;65.30
6627;DHT22;3349;49.830;8.748;2024-03-06T16:09:46;10.40;65.50
6627;DHT22;3349;49.830;8.748;2024-03-06T16:12:15;10.40;66.20
6627;DHT22;3349;49.830;8.748;2024-03-06T16:14:41;10.40;66.80